createdAt,value
2023-01-30T05:36:31.462Z,-0.66
2023-01-30T05:41:33.097Z,-0.70
2023-01-30T05:46:34.992Z,-0.57
2023-01-30T05:51:36.697Z,-0.58
2023-01-30T05:56:38.365Z,-0.59
2023-01-30T06:01:40.098Z,-0.69
2023-01-30T06:06:41.818Z,-0.48
2023-01-30T06:11:43.486Z,-0.50
2023-01-30T06:16:45.132Z,-0.41
2023-01-30T06:21:46.860Z,-0.28
2023-01-30T06:26:48.589Z,-0.13
2023-01-30T06:31:50.390Z,-0.38
2023-01-30T06:36:52.237Z,-0.52
2023-01-30T06:41:54.026Z,-0.48
2023-01-30T06:46:55.750Z,-0.44
2023-01-30T06:51:57.706Z,-0.40
2023-01-30T06:56:59.475Z,-0.47
2023-01-30T07:02:01.168Z,-0.35
2023-01-30T07:07:02.875Z,-0.61
2023-01-30T07:12:04.677Z,-0.42
2023-01-30T07:17:06.521Z,-0.36
2023-01-30T07:22:08.212Z,-0.40
2023-01-30T07:27:11.293Z,-0.26
2023-01-30T07:32:19.911Z,-0.08
2023-01-30T07:37:21.616Z,0.06
2023-01-30T07:42:23.290Z,0.10
2023-01-30T07:47:24.961Z,0.14
2023-01-30T07:52:26.702Z,0.20
2023-01-30T07:57:29.666Z,0.19
2023-01-30T08:02:31.421Z,0.34
2023-01-30T08:07:33.529Z,0.38
2023-01-30T08:12:35.378Z,0.56
2023-01-30T08:17:37.664Z,0.60
2023-01-30T08:22:39.481Z,0.63
2023-01-30T08:27:41.424Z,0.71
2023-01-30T08:32:43.257Z,0.80
2023-01-30T08:37:45.414Z,0.94
2023-01-30T08:42:47.529Z,1.21
2023-01-30T08:47:49.327Z,1.06
2023-01-30T08:52:51.220Z,1.29
2023-01-30T08:57:56.941Z,1.43
2023-01-30T09:02:58.782Z,1.52
2023-01-30T09:08:00.542Z,1.75
2023-01-30T09:13:02.277Z,1.74
2023-01-30T09:18:05.143Z,1.67
2023-01-30T09:23:06.871Z,1.69
2023-01-30T09:28:08.889Z,1.83
2023-01-30T09:33:10.582Z,2.11
2023-01-30T09:38:12.189Z,2.08
2023-01-30T09:43:39.844Z,2.15
2023-01-30T09:49:03.410Z,2.37
2023-01-30T09:54:15.392Z,2.41
2023-01-30T09:59:25.847Z,2.55
2023-01-30T10:04:39.045Z,2.60
2023-01-30T10:09:47.663Z,2.61
2023-01-30T10:15:48.229Z,2.72
2023-01-30T10:21:02.298Z,2.77
2023-01-30T10:26:14.696Z,2.95
2023-01-30T10:31:23.215Z,2.84
2023-01-30T10:37:03.452Z,2.75
2023-01-30T10:42:11.918Z,2.76
2023-01-30T10:47:22.077Z,2.84
2023-01-30T10:52:41.010Z,3.00
2023-01-30T10:57:57.786Z,2.94
2023-01-30T11:03:08.634Z,3.29
2023-01-30T11:08:28.330Z,3.54
2023-01-30T11:13:34.104Z,3.60
2023-01-30T11:19:18.922Z,3.80
2023-01-30T11:24:17.879Z,3.73
2023-01-30T11:29:30.236Z,4.23
2023-01-30T11:34:32.263Z,4.30
2023-01-30T11:39:34.915Z,4.33
2023-01-30T11:44:40.322Z,4.31
2023-01-30T11:50:01.144Z,3.91
2023-01-30T11:55:12.943Z,3.71
2023-01-30T12:00:24.382Z,3.79
2023-01-30T12:05:42.439Z,3.74
2023-01-30T12:10:45.586Z,3.76
2023-01-30T12:15:52.898Z,3.74
2023-01-30T12:21:00.467Z,3.66
2023-01-30T12:26:15.321Z,3.58
2023-01-30T12:31:26.141Z,3.46
2023-01-30T12:36:33.815Z,3.50
2023-01-30T12:41:52.281Z,3.28
2023-01-30T12:47:06.083Z,3.26
2023-01-30T12:52:46.963Z,3.03
2023-01-30T12:58:00.714Z,3.08
2023-01-30T13:03:27.134Z,3.07
2023-01-30T13:08:53.931Z,3.08
2023-01-30T13:14:09.697Z,3.10
2023-01-30T13:20:01.490Z,2.89
2023-01-30T13:25:21.302Z,2.72
2023-01-30T13:30:25.575Z,2.62
2023-01-30T13:35:34.921Z,2.59
2023-01-30T13:40:40.679Z,2.57
2023-01-30T13:45:46.315Z,2.48
2023-01-30T13:51:15.718Z,2.36
2023-01-30T13:56:40.403Z,2.17
2023-01-30T14:02:00.295Z,2.05
2023-01-30T14:07:40.687Z,1.98
2023-01-30T14:12:54.281Z,1.70
2023-01-30T14:18:05.611Z,1.82
2023-01-30T14:23:22.775Z,1.74
2023-01-30T14:28:24.637Z,1.91
2023-01-30T14:33:26.214Z,1.78
2023-01-30T14:38:35.280Z,1.74
2023-01-30T14:43:36.915Z,1.60
2023-01-30T14:49:04.421Z,1.63
2023-01-30T14:54:12.812Z,1.40
2023-01-30T14:59:17.567Z,1.43
2023-01-30T15:04:21.169Z,1.61
2023-01-30T15:09:26.994Z,1.46
2023-01-30T15:14:52.412Z,1.42
2023-01-30T15:20:21.960Z,1.23
2023-01-30T15:25:37.305Z,1.32
2023-01-30T15:30:57.349Z,1.28
2023-01-30T15:36:17.356Z,1.38
2023-01-30T15:41:19.068Z,1.49
2023-01-30T15:46:53.173Z,1.48
2023-01-30T15:51:59.676Z,1.58
2023-01-30T15:57:01.574Z,1.73
2023-01-30T16:02:08.155Z,1.88
2023-01-30T16:07:22.830Z,2.08
2023-01-30T16:12:29.677Z,2.23
2023-01-30T16:17:32.010Z,2.34
2023-01-30T16:22:35.102Z,2.32
2023-01-30T16:27:41.260Z,2.38
2023-01-30T16:32:43.097Z,2.46
2023-01-30T16:37:44.792Z,2.60
2023-01-30T16:43:01.029Z,2.47
2023-01-30T16:48:30.928Z,2.74
2023-01-30T16:53:33.771Z,2.66
2023-01-30T16:58:36.992Z,2.71
2023-01-30T17:03:42.771Z,2.73
2023-01-30T17:08:49.414Z,2.75
2023-01-30T17:14:14.690Z,2.70
2023-01-30T17:19:16.537Z,2.72
2023-01-30T17:24:21.500Z,2.80
2023-01-30T17:29:41.413Z,2.83
2023-01-30T17:34:44.046Z,2.78
2023-01-30T17:39:46.025Z,2.81
2023-01-30T17:44:47.886Z,2.82
2023-01-30T17:49:49.572Z,2.86
2023-01-30T17:54:51.257Z,2.77
2023-01-30T17:59:54.313Z,2.62
2023-01-30T18:04:56.083Z,2.39
2023-01-30T18:10:00.544Z,2.38
2023-01-30T18:15:02.287Z,2.66
2023-01-30T18:20:04.380Z,2.64
2023-01-30T18:25:06.707Z,2.66
2023-01-30T18:30:09.106Z,2.78
2023-01-30T18:35:10.870Z,2.72
2023-01-30T18:40:15.292Z,2.83
2023-01-30T18:45:17.106Z,2.83
2023-01-30T18:50:19.423Z,2.83
2023-01-30T18:55:23.360Z,2.92
2023-01-30T19:00:25.435Z,2.92
2023-01-30T19:05:27.076Z,2.89
2023-01-30T19:10:30.750Z,2.93
2023-01-30T19:15:35.211Z,2.81
2023-01-30T19:20:36.885Z,2.79
2023-01-30T19:25:38.603Z,2.80
2023-01-30T19:30:40.416Z,2.73
2023-01-30T19:35:43.761Z,2.60
2023-01-30T19:40:46.730Z,2.67
2023-01-30T19:45:58.179Z,2.69
2023-01-30T19:51:02.786Z,2.57
2023-01-30T19:56:05.225Z,2.67
2023-01-30T20:01:12.225Z,2.67
2023-01-30T20:06:16.868Z,2.71
2023-01-30T20:11:21.318Z,2.62
2023-01-30T20:16:25.765Z,2.58
2023-01-30T20:21:29.197Z,2.58
2023-01-30T20:26:35.399Z,2.55
2023-01-30T20:31:39.214Z,2.68
2023-01-30T20:36:41.495Z,2.71
2023-01-30T20:41:43.278Z,2.73
2023-01-30T20:46:46.384Z,2.77
2023-01-30T20:51:51.409Z,2.66
2023-01-30T20:56:53.957Z,2.73
2023-01-30T21:01:55.784Z,2.72
2023-01-30T21:06:57.606Z,2.86
2023-01-30T21:11:59.283Z,2.73
2023-01-30T21:17:01.583Z,2.86
2023-01-30T21:22:09.362Z,2.85
2023-01-30T21:27:11.110Z,2.93
2023-01-30T21:32:12.846Z,2.96
2023-01-30T21:37:33.018Z,2.93
